sensor_id;sensor_type;location;lat;lon;timestamp;P1;durP1;ratioP1;P2;durP2;ratioP2
47483;SDS011;54076;50.322;18.650;2023-02-28T00:04:20;13.30;;;5.10;;
47483;SDS011;54076;50.322;18.650;2023-02-28T00:09:21;13.20;;;5.90;;
47483;SDS011;54076;50.322;18.650;2023-02-28T00:14:22;12.80;;;5.50;;
47483;SDS011;54076;50.322;18.650;2023-02-28T00:19:23;12.70;;;5.50;;
47483;SDS011;54076;50.322;18.650;2023-02-28T00:24:24;14.00;;;5.90;;
47483;SDS011;54076;50.322;18.650;2023-02-28T00:29:25;16.90;;;6.00;;
47483;SDS011;54076;50.322;18.650;2023-02-28T00:34:26;14.60;;;5.70;;
47483;SDS011;54076;50.322;18.650;2023-02-28T00:39:28;14.80;;;6.40;;
47483;SDS011;54076;50.322;18.650;2023-02-28T00:44:29;16.40;;;6.10;;
47483;SDS011;54076;50.322;18.650;2023-02-28T00:49:31;12.80;;;5.30;;
47483;SDS011;54076;50.322;18.650;2023-02-28T00:54:32;12.60;;;5.40;;
47483;SDS011;54076;50.322;18.650;2023-02-28T00:59:34;12.20;;;5.60;;
47483;SDS011;54076;50.322;18.650;2023-02-28T01:04:35;12.80;;;6.10;;
47483;SDS011;54076;50.322;18.650;2023-02-28T01:09:36;15.80;;;6.10;;
47483;SDS011;54076;50.322;18.650;2023-02-28T01:14:38;14.20;;;5.90;;
47483;SDS011;54076;50.322;18.650;2023-02-28T01:19:39;15.20;;;5.80;;
47483;SDS011;54076;50.322;18.650;2023-02-28T01:24:40;13.80;;;5.60;;
47483;SDS011;54076;50.322;18.650;2023-02-28T01:29:41;16.40;;;6.10;;
47483;SDS011;54076;50.322;18.650;2023-02-28T01:34:42;19.60;;;6.80;;
47483;SDS011;54076;50.322;18.650;2023-02-28T01:39:43;17.40;;;6.20;;
47483;SDS011;54076;50.322;18.650;2023-02-28T01:45:16;15.70;;;6.90;;
47483;SDS011;54076;50.322;18.650;2023-02-28T01:50:34;19.50;;;6.50;;
47483;SDS011;54076;50.322;18.650;2023-02-28T01:55:39;16.40;;;6.30;;
47483;SDS011;54076;50.322;18.650;2023-02-28T02:00:42;15.20;;;6.70;;
47483;SDS011;54076;50.322;18.650;2023-02-28T02:05:44;15.50;;;6.90;;
47483;SDS011;54076;50.322;18.650;2023-02-28T02:44:07;17.70;;;6.80;;
47483;SDS011;54076;50.322;18.650;2023-02-28T02:49:26;16.50;;;6.70;;
47483;SDS011;54076;50.322;18.650;2023-02-28T02:54:36;20.30;;;7.20;;
47483;SDS011;54076;50.322;18.650;2023-02-28T02:59:42;18.40;;;7.10;;
47483;SDS011;54076;50.322;18.650;2023-02-28T03:04:46;17.90;;;7.40;;
47483;SDS011;54076;50.322;18.650;2023-02-28T03:09:53;18.30;;;7.60;;
47483;SDS011;54076;50.322;18.650;2023-02-28T03:15:02;16.10;;;7.20;;
47483;SDS011;54076;50.322;18.650;2023-02-28T03:20:35;19.60;;;7.80;;
47483;SDS011;54076;50.322;18.650;2023-02-28T03:26:06;21.10;;;7.90;;
47483;SDS011;54076;50.322;18.650;2023-02-28T03:36:59;16.60;;;6.90;;
47483;SDS011;54076;50.322;18.650;2023-02-28T03:42:15;18.90;;;7.90;;
47483;SDS011;54076;50.322;18.650;2023-02-28T03:47:25;16.90;;;7.40;;
47483;SDS011;54076;50.322;18.650;2023-02-28T03:52:35;16.20;;;7.60;;
47483;SDS011;54076;50.322;18.650;2023-02-28T04:02:57;19.20;;;7.00;;
47483;SDS011;54076;50.322;18.650;2023-02-28T04:08:07;20.50;;;7.70;;
47483;SDS011;54076;50.322;18.650;2023-02-28T04:13:09;21.30;;;7.30;;
47483;SDS011;54076;50.322;18.650;2023-02-28T04:18:10;21.70;;;7.60;;
47483;SDS011;54076;50.322;18.650;2023-02-28T04:23:11;16.10;;;7.20;;
47483;SDS011;54076;50.322;18.650;2023-02-28T04:28:12;17.80;;;7.40;;
47483;SDS011;54076;50.322;18.650;2023-02-28T04:33:13;17.40;;;6.90;;
47483;SDS011;54076;50.322;18.650;2023-02-28T04:38:14;17.90;;;7.60;;
47483;SDS011;54076;50.322;18.650;2023-02-28T04:43:16;26.60;;;8.20;;
47483;SDS011;54076;50.322;18.650;2023-02-28T04:48:17;22.70;;;7.80;;
47483;SDS011;54076;50.322;18.650;2023-02-28T04:53:18;19.50;;;7.80;;
47483;SDS011;54076;50.322;18.650;2023-02-28T04:58:19;22.60;;;8.90;;
47483;SDS011;54076;50.322;18.650;2023-02-28T05:03:23;20.00;;;8.00;;
47483;SDS011;54076;50.322;18.650;2023-02-28T05:08:25;22.00;;;8.70;;
47483;SDS011;54076;50.322;18.650;2023-02-28T05:13:27;22.00;;;8.80;;
47483;SDS011;54076;50.322;18.650;2023-02-28T05:18:29;26.80;;;8.70;;
47483;SDS011;54076;50.322;18.650;2023-02-28T05:23:30;22.60;;;8.50;;
47483;SDS011;54076;50.322;18.650;2023-02-28T05:28:31;27.90;;;12.20;;
47483;SDS011;54076;50.322;18.650;2023-02-28T05:33:32;22.40;;;9.10;;
47483;SDS011;54076;50.322;18.650;2023-02-28T05:38:33;26.30;;;8.10;;
47483;SDS011;54076;50.322;18.650;2023-02-28T05:43:35;22.20;;;8.40;;
47483;SDS011;54076;50.322;18.650;2023-02-28T05:48:38;20.80;;;8.10;;
47483;SDS011;54076;50.322;18.650;2023-02-28T05:53:40;23.20;;;9.60;;
47483;SDS011;54076;50.322;18.650;2023-02-28T05:58:42;19.80;;;8.80;;
47483;SDS011;54076;50.322;18.650;2023-02-28T06:03:43;23.00;;;8.60;;
47483;SDS011;54076;50.322;18.650;2023-02-28T06:08:44;21.90;;;9.40;;
47483;SDS011;54076;50.322;18.650;2023-02-28T06:13:46;17.70;;;8.60;;
47483;SDS011;54076;50.322;18.650;2023-02-28T06:18:47;20.70;;;9.00;;
47483;SDS011;54076;50.322;18.650;2023-02-28T06:23:49;25.30;;;9.00;;
47483;SDS011;54076;50.322;18.650;2023-02-28T06:28:50;21.60;;;9.20;;
47483;SDS011;54076;50.322;18.650;2023-02-28T06:33:51;21.30;;;9.80;;
47483;SDS011;54076;50.322;18.650;2023-02-28T06:38:53;21.70;;;8.90;;
47483;SDS011;54076;50.322;18.650;2023-02-28T06:43:56;21.10;;;8.60;;
47483;SDS011;54076;50.322;18.650;2023-02-28T06:48:57;23.80;;;9.40;;
47483;SDS011;54076;50.322;18.650;2023-02-28T06:53:58;23.60;;;10.20;;
47483;SDS011;54076;50.322;18.650;2023-02-28T06:59:00;21.00;;;9.20;;
47483;SDS011;54076;50.322;18.650;2023-02-28T07:04:01;20.80;;;9.50;;
47483;SDS011;54076;50.322;18.650;2023-02-28T07:09:02;18.80;;;8.80;;
47483;SDS011;54076;50.322;18.650;2023-02-28T07:14:04;25.60;;;9.90;;
47483;SDS011;54076;50.322;18.650;2023-02-28T07:19:05;24.70;;;9.80;;
47483;SDS011;54076;50.322;18.650;2023-02-28T07:24:07;22.00;;;10.10;;
47483;SDS011;54076;50.322;18.650;2023-02-28T07:29:08;21.20;;;8.80;;
47483;SDS011;54076;50.322;18.650;2023-02-28T07:34:09;29.70;;;10.20;;
47483;SDS011;54076;50.322;18.650;2023-02-28T07:39:10;27.20;;;10.60;;
47483;SDS011;54076;50.322;18.650;2023-02-28T07:44:11;28.00;;;11.20;;
47483;SDS011;54076;50.322;18.650;2023-02-28T07:49:13;26.40;;;11.00;;
47483;SDS011;54076;50.322;18.650;2023-02-28T07:54:14;25.10;;;10.60;;
47483;SDS011;54076;50.322;18.650;2023-02-28T07:59:15;23.90;;;10.00;;
47483;SDS011;54076;50.322;18.650;2023-02-28T08:04:17;23.00;;;10.00;;
47483;SDS011;54076;50.322;18.650;2023-02-28T08:09:19;27.40;;;10.80;;
47483;SDS011;54076;50.322;18.650;2023-02-28T08:14:20;22.90;;;9.60;;
47483;SDS011;54076;50.322;18.650;2023-02-28T08:19:21;23.80;;;9.70;;
47483;SDS011;54076;50.322;18.650;2023-02-28T08:24:23;22.20;;;9.30;;
47483;SDS011;54076;50.322;18.650;2023-02-28T08:29:24;23.40;;;9.50;;
47483;SDS011;54076;50.322;18.650;2023-02-28T08:34:25;26.10;;;10.20;;
47483;SDS011;54076;50.322;18.650;2023-02-28T08:39:26;26.90;;;10.70;;
47483;SDS011;54076;50.322;18.650;2023-02-28T08:44:27;31.00;;;11.70;;
47483;SDS011;54076;50.322;18.650;2023-02-28T08:49:29;31.60;;;11.40;;
47483;SDS011;54076;50.322;18.650;2023-02-28T08:54:30;29.60;;;11.90;;
47483;SDS011;54076;50.322;18.650;2023-02-28T08:59:32;32.20;;;12.30;;
47483;SDS011;54076;50.322;18.650;2023-02-28T09:04:34;37.20;;;13.00;;
47483;SDS011;54076;50.322;18.650;2023-02-28T09:09:35;25.80;;;11.40;;
47483;SDS011;54076;50.322;18.650;2023-02-28T09:14:36;29.60;;;12.40;;
47483;SDS011;54076;50.322;18.650;2023-02-28T09:19:37;31.80;;;11.50;;
47483;SDS011;54076;50.322;18.650;2023-02-28T09:24:38;27.60;;;11.10;;
47483;SDS011;54076;50.322;18.650;2023-02-28T09:29:39;24.20;;;10.90;;
47483;SDS011;54076;50.322;18.650;2023-02-28T09:34:41;29.30;;;12.10;;
47483;SDS011;54076;50.322;18.650;2023-02-28T09:39:42;32.40;;;11.70;;
47483;SDS011;54076;50.322;18.650;2023-02-28T09:44:44;25.40;;;11.90;;
47483;SDS011;54076;50.322;18.650;2023-02-28T09:49:48;26.70;;;10.90;;
47483;SDS011;54076;50.322;18.650;2023-02-28T09:54:49;22.20;;;10.00;;
47483;SDS011;54076;50.322;18.650;2023-02-28T10:05:15;27.20;;;9.40;;
47483;SDS011;54076;50.322;18.650;2023-02-28T10:10:41;20.10;;;9.30;;
47483;SDS011;54076;50.322;18.650;2023-02-28T10:15:43;24.50;;;10.30;;
47483;SDS011;54076;50.322;18.650;2023-02-28T10:20:47;31.10;;;10.60;;
47483;SDS011;54076;50.322;18.650;2023-02-28T10:26:13;27.60;;;10.60;;
47483;SDS011;54076;50.322;18.650;2023-02-28T10:31:19;21.20;;;10.20;;
47483;SDS011;54076;50.322;18.650;2023-02-28T10:36:21;28.20;;;10.70;;
47483;SDS011;54076;50.322;18.650;2023-02-28T10:41:28;25.70;;;11.60;;
47483;SDS011;54076;50.322;18.650;2023-02-28T10:46:29;28.50;;;11.90;;
47483;SDS011;54076;50.322;18.650;2023-02-28T10:51:38;26.60;;;11.40;;
47483;SDS011;54076;50.322;18.650;2023-02-28T10:56:40;26.20;;;12.40;;
47483;SDS011;54076;50.322;18.650;2023-02-28T11:01:44;29.00;;;11.30;;
47483;SDS011;54076;50.322;18.650;2023-02-28T11:07:03;24.70;;;11.40;;
47483;SDS011;54076;50.322;18.650;2023-02-28T11:12:07;26.20;;;10.40;;
47483;SDS011;54076;50.322;18.650;2023-02-28T11:17:22;27.10;;;11.70;;
47483;SDS011;54076;50.322;18.650;2023-02-28T11:22:28;30.40;;;12.60;;
47483;SDS011;54076;50.322;18.650;2023-02-28T11:27:54;25.10;;;12.50;;
47483;SDS011;54076;50.322;18.650;2023-02-28T11:32:55;25.10;;;11.90;;
47483;SDS011;54076;50.322;18.650;2023-02-28T11:37:57;24.20;;;12.00;;
47483;SDS011;54076;50.322;18.650;2023-02-28T11:43:27;23.70;;;11.30;;
47483;SDS011;54076;50.322;18.650;2023-02-28T12:05:42;25.50;;;11.40;;
47483;SDS011;54076;50.322;18.650;2023-02-28T12:16:36;20.40;;;9.50;;
47483;SDS011;54076;50.322;18.650;2023-02-28T12:26:56;19.00;;;9.50;;
47483;SDS011;54076;50.322;18.650;2023-02-28T12:32:06;22.00;;;11.10;;
47483;SDS011;54076;50.322;18.650;2023-02-28T12:37:12;17.10;;;9.40;;
47483;SDS011;54076;50.322;18.650;2023-02-28T12:42:28;20.20;;;10.10;;
47483;SDS011;54076;50.322;18.650;2023-02-28T12:47:32;20.20;;;9.90;;
47483;SDS011;54076;50.322;18.650;2023-02-28T13:09:05;19.80;;;9.60;;
47483;SDS011;54076;50.322;18.650;2023-02-28T13:14:22;19.70;;;9.30;;
47483;SDS011;54076;50.322;18.650;2023-02-28T13:19:31;18.80;;;9.20;;
47483;SDS011;54076;50.322;18.650;2023-02-28T13:24:39;19.50;;;9.80;;
47483;SDS011;54076;50.322;18.650;2023-02-28T13:29:43;17.70;;;9.80;;
47483;SDS011;54076;50.322;18.650;2023-02-28T13:39:59;22.00;;;9.70;;
47483;SDS011;54076;50.322;18.650;2023-02-28T13:45:28;18.00;;;8.70;;
47483;SDS011;54076;50.322;18.650;2023-02-28T13:50:34;18.70;;;9.40;;
47483;SDS011;54076;50.322;18.650;2023-02-28T14:06:31;20.40;;;9.80;;
47483;SDS011;54076;50.322;18.650;2023-02-28T14:11:36;20.40;;;9.30;;
47483;SDS011;54076;50.322;18.650;2023-02-28T14:16:40;20.50;;;9.60;;
47483;SDS011;54076;50.322;18.650;2023-02-28T14:33:22;21.30;;;10.20;;
47483;SDS011;54076;50.322;18.650;2023-02-28T14:38:56;19.30;;;8.90;;
47483;SDS011;54076;50.322;18.650;2023-02-28T14:44:01;19.40;;;8.70;;
47483;SDS011;54076;50.322;18.650;2023-02-28T14:49:20;19.10;;;9.10;;
47483;SDS011;54076;50.322;18.650;2023-02-28T14:54:25;18.20;;;9.00;;
47483;SDS011;54076;50.322;18.650;2023-02-28T14:59:32;22.10;;;9.90;;
47483;SDS011;54076;50.322;18.650;2023-02-28T15:04:34;18.90;;;8.60;;
47483;SDS011;54076;50.322;18.650;2023-02-28T15:09:36;20.00;;;9.80;;
47483;SDS011;54076;50.322;18.650;2023-02-28T15:14:37;20.60;;;9.50;;
47483;SDS011;54076;50.322;18.650;2023-02-28T15:19:50;22.10;;;10.00;;
47483;SDS011;54076;50.322;18.650;2023-02-28T15:24:53;20.30;;;9.00;;
47483;SDS011;54076;50.322;18.650;2023-02-28T15:29:59;20.10;;;9.00;;
47483;SDS011;54076;50.322;18.650;2023-02-28T15:40:41;23.30;;;10.20;;
47483;SDS011;54076;50.322;18.650;2023-02-28T15:51:17;17.30;;;9.60;;
47483;SDS011;54076;50.322;18.650;2023-02-28T16:06:43;19.50;;;9.00;;
47483;SDS011;54076;50.322;18.650;2023-02-28T16:11:47;18.30;;;9.70;;
47483;SDS011;54076;50.322;18.650;2023-02-28T16:16:52;23.40;;;9.40;;
47483;SDS011;54076;50.322;18.650;2023-02-28T16:21:55;19.40;;;9.50;;
47483;SDS011;54076;50.322;18.650;2023-02-28T16:26:56;24.20;;;10.00;;
47483;SDS011;54076;50.322;18.650;2023-02-28T16:31:58;22.20;;;9.80;;
47483;SDS011;54076;50.322;18.650;2023-02-28T16:37:00;21.80;;;9.30;;
47483;SDS011;54076;50.322;18.650;2023-02-28T16:42:02;21.50;;;10.60;;
47483;SDS011;54076;50.322;18.650;2023-02-28T16:47:03;21.50;;;9.40;;
47483;SDS011;54076;50.322;18.650;2023-02-28T16:52:05;22.20;;;9.50;;
47483;SDS011;54076;50.322;18.650;2023-02-28T16:57:11;20.70;;;9.20;;
47483;SDS011;54076;50.322;18.650;2023-02-28T17:02:21;25.30;;;10.30;;
47483;SDS011;54076;50.322;18.650;2023-02-28T17:07:22;22.10;;;9.60;;
47483;SDS011;54076;50.322;18.650;2023-02-28T17:12:23;22.30;;;9.40;;
47483;SDS011;54076;50.322;18.650;2023-02-28T17:17:24;22.40;;;9.80;;
47483;SDS011;54076;50.322;18.650;2023-02-28T17:22:26;23.40;;;10.30;;
47483;SDS011;54076;50.322;18.650;2023-02-28T17:27:27;24.80;;;10.20;;
47483;SDS011;54076;50.322;18.650;2023-02-28T17:32:28;28.00;;;11.50;;
47483;SDS011;54076;50.322;18.650;2023-02-28T17:37:29;29.70;;;12.40;;
47483;SDS011;54076;50.322;18.650;2023-02-28T17:42:30;32.50;;;12.90;;
47483;SDS011;54076;50.322;18.650;2023-02-28T17:47:32;29.60;;;12.80;;
47483;SDS011;54076;50.322;18.650;2023-02-28T17:52:33;31.10;;;12.90;;
47483;SDS011;54076;50.322;18.650;2023-02-28T17:57:37;30.60;;;12.40;;
47483;SDS011;54076;50.322;18.650;2023-02-28T18:02:39;33.90;;;13.70;;
47483;SDS011;54076;50.322;18.650;2023-02-28T18:07:40;39.20;;;15.70;;
47483;SDS011;54076;50.322;18.650;2023-02-28T18:12:41;37.10;;;15.50;;
47483;SDS011;54076;50.322;18.650;2023-02-28T18:17:43;37.40;;;15.70;;
47483;SDS011;54076;50.322;18.650;2023-02-28T18:22:44;36.20;;;16.40;;
47483;SDS011;54076;50.322;18.650;2023-02-28T18:27:45;39.90;;;15.80;;
47483;SDS011;54076;50.322;18.650;2023-02-28T18:33:00;45.20;;;16.50;;
47483;SDS011;54076;50.322;18.650;2023-02-28T18:38:07;43.80;;;16.60;;
47483;SDS011;54076;50.322;18.650;2023-02-28T18:43:17;47.40;;;20.10;;
47483;SDS011;54076;50.322;18.650;2023-02-28T18:48:19;52.10;;;21.10;;
47483;SDS011;54076;50.322;18.650;2023-02-28T18:53:23;56.80;;;22.30;;
47483;SDS011;54076;50.322;18.650;2023-02-28T18:58:24;60.40;;;23.20;;
47483;SDS011;54076;50.322;18.650;2023-02-28T19:03:25;45.10;;;18.00;;
47483;SDS011;54076;50.322;18.650;2023-02-28T19:08:26;54.00;;;19.80;;
47483;SDS011;54076;50.322;18.650;2023-02-28T19:13:27;50.90;;;19.30;;
47483;SDS011;54076;50.322;18.650;2023-02-28T19:18:28;45.00;;;18.50;;
47483;SDS011;54076;50.322;18.650;2023-02-28T19:23:30;49.30;;;19.50;;
47483;SDS011;54076;50.322;18.650;2023-02-28T19:28:32;61.30;;;23.30;;
47483;SDS011;54076;50.322;18.650;2023-02-28T19:33:33;58.90;;;22.90;;
47483;SDS011;54076;50.322;18.650;2023-02-28T19:38:34;65.10;;;25.90;;
47483;SDS011;54076;50.322;18.650;2023-02-28T19:43:35;68.30;;;25.30;;
47483;SDS011;54076;50.322;18.650;2023-02-28T19:48:37;66.00;;;25.40;;
47483;SDS011;54076;50.322;18.650;2023-02-28T19:53:39;59.30;;;23.50;;
47483;SDS011;54076;50.322;18.650;2023-02-28T19:58:41;61.80;;;24.30;;
47483;SDS011;54076;50.322;18.650;2023-02-28T20:03:46;70.10;;;27.10;;
47483;SDS011;54076;50.322;18.650;2023-02-28T20:08:53;88.70;;;34.30;;
47483;SDS011;54076;50.322;18.650;2023-02-28T20:13:54;82.00;;;28.70;;
47483;SDS011;54076;50.322;18.650;2023-02-28T20:19:00;84.10;;;29.80;;
47483;SDS011;54076;50.322;18.650;2023-02-28T20:24:01;76.90;;;30.80;;
47483;SDS011;54076;50.322;18.650;2023-02-28T20:29:03;80.00;;;30.30;;
47483;SDS011;54076;50.322;18.650;2023-02-28T20:34:04;68.10;;;26.10;;
47483;SDS011;54076;50.322;18.650;2023-02-28T20:39:06;68.40;;;26.80;;
47483;SDS011;54076;50.322;18.650;2023-02-28T20:44:10;70.40;;;27.10;;
47483;SDS011;54076;50.322;18.650;2023-02-28T20:49:12;73.30;;;27.80;;
47483;SDS011;54076;50.322;18.650;2023-02-28T20:54:14;68.70;;;26.80;;
47483;SDS011;54076;50.322;18.650;2023-02-28T20:59:16;73.40;;;27.00;;
47483;SDS011;54076;50.322;18.650;2023-02-28T21:04:17;68.10;;;25.10;;
47483;SDS011;54076;50.322;18.650;2023-02-28T21:09:18;71.30;;;26.80;;
47483;SDS011;54076;50.322;18.650;2023-02-28T21:14:20;74.70;;;28.50;;
47483;SDS011;54076;50.322;18.650;2023-02-28T21:19:21;73.70;;;27.70;;
47483;SDS011;54076;50.322;18.650;2023-02-28T21:24:22;75.20;;;27.80;;
47483;SDS011;54076;50.322;18.650;2023-02-28T21:29:24;83.10;;;29.50;;
47483;SDS011;54076;50.322;18.650;2023-02-28T21:34:25;70.30;;;28.00;;
47483;SDS011;54076;50.322;18.650;2023-02-28T21:39:26;78.70;;;28.30;;
47483;SDS011;54076;50.322;18.650;2023-02-28T21:44:30;71.90;;;27.70;;
47483;SDS011;54076;50.322;18.650;2023-02-28T21:49:32;102.70;;;37.60;;
47483;SDS011;54076;50.322;18.650;2023-02-28T21:54:33;75.90;;;28.40;;
47483;SDS011;54076;50.322;18.650;2023-02-28T21:59:34;87.40;;;31.00;;
47483;SDS011;54076;50.322;18.650;2023-02-28T22:04:36;80.00;;;31.20;;
47483;SDS011;54076;50.322;18.650;2023-02-28T22:09:37;92.90;;;33.00;;
47483;SDS011;54076;50.322;18.650;2023-02-28T22:14:39;127.30;;;41.30;;
47483;SDS011;54076;50.322;18.650;2023-02-28T22:19:41;121.60;;;39.10;;
47483;SDS011;54076;50.322;18.650;2023-02-28T22:24:42;120.50;;;40.40;;
47483;SDS011;54076;50.322;18.650;2023-02-28T22:29:44;111.90;;;36.90;;
47483;SDS011;54076;50.322;18.650;2023-02-28T22:34:45;96.70;;;36.50;;
47483;SDS011;54076;50.322;18.650;2023-02-28T22:39:49;93.80;;;34.00;;
47483;SDS011;54076;50.322;18.650;2023-02-28T22:44:51;95.90;;;35.50;;
47483;SDS011;54076;50.322;18.650;2023-02-28T22:49:52;109.70;;;38.50;;
47483;SDS011;54076;50.322;18.650;2023-02-28T22:54:53;98.10;;;35.30;;
47483;SDS011;54076;50.322;18.650;2023-02-28T22:59:54;96.60;;;33.60;;
47483;SDS011;54076;50.322;18.650;2023-02-28T23:04:55;90.00;;;33.00;;
47483;SDS011;54076;50.322;18.650;2023-02-28T23:09:56;98.50;;;35.60;;
47483;SDS011;54076;50.322;18.650;2023-02-28T23:14:58;91.40;;;33.10;;
47483;SDS011;54076;50.322;18.650;2023-02-28T23:19:59;94.30;;;33.40;;
47483;SDS011;54076;50.322;18.650;2023-02-28T23:25:01;98.10;;;34.70;;
47483;SDS011;54076;50.322;18.650;2023-02-28T23:30:03;93.20;;;35.30;;
47483;SDS011;54076;50.322;18.650;2023-02-28T23:35:05;97.30;;;34.50;;
47483;SDS011;54076;50.322;18.650;2023-02-28T23:40:09;86.10;;;32.80;;
47483;SDS011;54076;50.322;18.650;2023-02-28T23:45:11;92.60;;;33.30;;
47483;SDS011;54076;50.322;18.650;2023-02-28T23:50:12;95.80;;;35.20;;
47483;SDS011;54076;50.322;18.650;2023-02-28T23:55:13;111.50;;;39.50;;
